Time;durP1;ratioP1;P1;durP2;ratioP2;P2;SDS_P1;SDS_P2;PMS_P1;PMS_P2;Temp;Humidity;BMP_temperature;BMP_pressure;BME280_temperature;BME280_humidity;BME280_pressure;Samples;Min_cycle;Max_cycle;Signal;HPM_P1;HPM_P2
2022/05/11 00:02:06;;;;;;;6.53;5.70;;;;;14.40;94305.00;;;;7393279;19;20135;-76
2022/05/11 00:04:34;;;;;;;7.45;5.13;;;;;14.60;94307.00;;;;7393739;19;20125;-76
2022/05/11 00:07:08;;;;;;;6.22;5.10;;;;;14.50;94299.00;;;;7391945;19;20139;-76
2022/05/11 00:09:35;;;;;;;5.40;4.82;;;;;14.70;94300.00;;;;7392999;19;20136;-77
2022/05/11 00:12:03;;;;;;;4.70;4.30;;;;;14.50;94301.00;;;;7391873;19;20140;-76
2022/05/11 00:14:37;;;;;;;4.97;4.55;;;;;14.60;94305.00;;;;7391540;19;20147;-75
2022/05/11 00:17:04;;;;;;;6.18;5.05;;;;;14.50;94301.00;;;;7392103;19;20157;-78
2022/05/11 00:19:32;;;;;;;7.57;5.10;;;;;14.40;94294.00;;;;7392460;19;20153;-77
2022/05/11 00:22:13;;;;;;;5.65;5.10;;;;;14.50;94290.00;;;;7390053;19;20476;-78
2022/05/11 00:24:41;;;;;;;5.75;5.25;;;;;14.50;94285.00;;;;7391863;19;20139;-77
2022/05/11 00:27:15;;;;;;;4.68;4.28;;;;;14.50;94290.00;;;;7389943;19;20133;-78
2022/05/11 00:29:42;;;;;;;8.70;4.72;;;;;14.50;94279.00;;;;7394350;19;20128;-78
2022/05/11 00:32:10;;;;;;;4.90;4.40;;;;;14.70;94283.00;;;;7388573;19;20133;-77
2022/05/11 00:34:44;;;;;;;7.53;4.60;;;;;14.70;94286.00;;;;7389687;19;20168;-77
2022/05/11 00:37:11;;;;;;;5.60;4.95;;;;;14.50;94285.00;;;;7391311;19;20615;-77
2022/05/11 00:39:39;;;;;;;5.95;4.28;;;;;14.40;94281.00;;;;7391873;19;20137;-77
2022/05/11 00:42:13;;;;;;;4.45;4.03;;;;;14.20;94287.00;;;;7391303;19;20169;-77
2022/05/11 00:44:42;;;;;;;4.78;4.38;;;;;14.10;94284.00;;;;7390845;19;20610;-78
2022/05/11 00:47:32;;;;;;;5.25;4.47;;;;;14.20;94287.00;;;;7389547;19;20174;-77
2022/05/11 00:50:28;;;;;;;5.03;4.53;;;;;14.20;94282.00;;;;7390807;19;20145;-77
2022/05/11 00:53:11;;;;;;;5.05;4.55;;;;;14.20;94274.00;;;;7391882;19;20153;-78
2022/05/11 00:55:53;;;;;;;5.05;4.55;;;;;14.20;94266.00;;;;7390686;19;20129;-77
2022/05/11 00:58:43;;;;;;;5.30;4.75;;;;;14.10;94265.00;;;;7387705;19;20141;-78
2022/05/11 01:01:24;;;;;;;4.95;4.45;;;;;14.10;94271.00;;;;7391133;19;20200;-79
2022/05/11 01:04:02;;;;;;;5.13;4.45;;;;;14.00;94269.00;;;;7389348;19;20143;-79
2022/05/11 01:06:37;;;;;;;10.18;5.13;;;;;14.00;94271.00;;;;7388366;19;20140;-79
2022/05/11 01:09:12;;;;;;;5.35;4.85;;;;;14.00;94265.00;;;;7391665;19;20462;-79
2022/05/11 01:11:57;;;;;;;5.00;4.60;;;;;13.70;94268.00;;;;7391140;19;20152;-78
2022/05/11 01:14:30;;;;;;;4.68;4.28;;;;;13.50;94262.00;;;;7390613;19;20143;-78
2022/05/11 01:17:05;;;;;;;9.07;5.60;;;;;13.40;94268.00;;;;7390207;19;20131;-79
2022/05/11 01:19:38;;;;;;;6.75;4.70;;;;;13.50;94265.00;;;;7390757;19;20356;-79
2022/05/11 01:22:22;;;;;;;5.40;4.63;;;;;13.40;94265.00;;;;7390598;19;20125;-79
2022/05/11 01:24:50;;;;;;;7.55;4.60;;;;;13.30;94277.00;;;;7390595;19;20148;-78
2022/05/11 01:27:27;;;;;;;8.73;4.90;;;;;13.40;94264.00;;;;7388605;19;20611;-79
2022/05/11 01:29:58;;;;;;;6.93;4.55;;;;;13.30;94258.00;;;;7390188;19;20167;-79
2022/05/11 01:32:33;;;;;;;5.50;4.97;;;;;13.20;94263.00;;;;7389959;19;20607;-79
2022/05/11 01:35:12;;;;;;;5.70;5.20;;;;;13.20;94260.00;;;;7391071;19;20614;-78
2022/05/11 01:38:13;;;;;;;6.15;5.30;;;;;13.30;94251.00;;;;7390440;19;20140;-78
2022/05/11 01:40:40;;;;;;;6.90;5.25;;;;;13.20;94270.00;;;;7390422;19;20125;-78
2022/05/11 01:43:18;;;;;;;5.88;5.28;;;;;13.00;94266.00;;;;7393258;19;20144;-78
2022/05/11 01:45:46;;;;;;;6.13;5.13;;;;;13.00;94267.00;;;;7396738;19;20232;-79
2022/05/11 01:48:14;;;;;;;5.32;4.88;;;;;13.10;94257.00;;;;7396364;19;20128;-78
2022/05/11 01:50:48;;;;;;;7.45;5.10;;;;;13.30;94265.00;;;;7396712;19;20172;-78
2022/05/11 01:53:16;;;;;;;9.52;5.53;;;;;13.10;94258.00;;;;7396565;19;20142;-78
2022/05/11 01:55:44;;;;;;;6.88;5.47;;;;;13.00;94254.00;;;;7397111;19;20164;-78
2022/05/11 01:58:25;;;;;;;6.45;5.50;;;;;12.90;94247.00;;;;7396080;19;20140;-78
2022/05/11 02:01:00;;;;;;;6.47;5.20;;;;;12.80;94259.00;;;;7395811;19;20657;-78
2022/05/11 02:03:34;;;;;;;5.63;4.95;;;;;12.70;94259.00;;;;7396308;19;20137;-78
2022/05/11 02:08:54;;;;;;;8.15;5.38;;;;;12.70;94261.00;;;;7396113;19;20636;-78
2022/05/11 02:11:22;;;;;;;6.32;5.05;;;;;12.60;94258.00;;;;7395498;19;20141;-78
2022/05/11 02:13:49;;;;;;;6.90;5.13;;;;;12.60;94254.00;;;;7394965;19;20485;-78
2022/05/11 02:16:23;;;;;;;5.50;5.00;;;;;12.60;94258.00;;;;7393269;19;20157;-78
2022/05/11 02:18:52;;;;;;;7.60;5.45;;;;;12.60;94251.00;;;;7395851;19;20165;-78
2022/05/11 02:21:19;;;;;;;8.20;6.05;;;;;12.70;94248.00;;;;7395392;19;20125;-78
2022/05/11 02:23:53;;;;;;;6.40;5.45;;;;;12.60;94246.00;;;;7395697;19;20164;-78
2022/05/11 02:26:21;;;;;;;5.82;5.22;;;;;12.70;94251.00;;;;7395670;19;20127;-78
2022/05/11 02:28:49;;;;;;;7.90;5.30;;;;;12.60;94248.00;;;;7395884;19;20460;-78
2022/05/11 02:31:24;;;;;;;9.35;5.63;;;;;12.60;94248.00;;;;7394632;19;20132;-78
2022/05/11 02:33:52;;;;;;;5.95;5.38;;;;;12.70;94248.00;;;;7393333;19;20645;-78
2022/05/11 02:36:19;;;;;;;8.40;5.25;;;;;12.60;94248.00;;;;7395245;19;20495;-78
2022/05/11 02:38:53;;;;;;;5.82;5.22;;;;;12.50;94247.00;;;;7396567;19;20141;-78
2022/05/11 02:41:21;;;;;;;5.93;5.32;;;;;12.60;94253.00;;;;7394657;19;20164;-78
2022/05/11 02:43:48;;;;;;;6.18;5.57;;;;;12.60;94249.00;;;;7394280;19;20129;-78
2022/05/11 02:46:23;;;;;;;6.35;5.75;;;;;12.70;94249.00;;;;7393947;19;20908;-78
2022/05/11 02:48:51;;;;;;;6.50;5.80;;;;;12.60;94249.00;;;;7395118;19;20137;-78
2022/05/11 02:51:19;;;;;;;6.10;5.15;;;;;12.70;94243.00;;;;7393923;19;20140;-78
2022/05/11 02:53:53;;;;;;;9.50;5.05;;;;;12.60;94244.00;;;;7392257;19;20120;-78
2022/05/11 02:56:20;;;;;;;5.72;5.10;;;;;12.90;94241.00;;;;7394338;19;20144;-78
2022/05/11 02:58:48;;;;;;;5.53;5.03;;;;;13.00;94244.00;;;;7394090;19;20166;-78
2022/05/11 03:01:28;;;;;;;7.60;5.13;;;;;13.10;94241.00;;;;7394257;19;20152;-78
2022/05/11 03:03:57;;;;;;;6.32;5.70;;;;;13.40;94247.00;;;;7390425;19;20139;-77
2022/05/11 03:06:31;;;;;;;6.25;5.53;;;;;13.20;94231.00;;;;7397196;19;20136;-78
2022/05/11 03:08:58;;;;;;;5.80;5.20;;;;;13.40;94238.00;;;;7394155;19;20195;-78
2022/05/11 03:11:26;;;;;;;6.78;5.63;;;;;13.50;94233.00;;;;7395746;19;20129;-79
2022/05/11 03:14:00;;;;;;;5.88;5.38;;;;;13.50;94228.00;;;;7393834;19;20480;-78
2022/05/11 03:16:28;;;;;;;6.78;5.30;;;;;13.40;94230.00;;;;7393789;19;20141;-78
2022/05/11 03:18:58;;;;;;;9.80;5.38;;;;;13.40;94234.00;;;;7388328;19;20147;-79
2022/05/11 03:21:33;;;;;;;7.55;5.60;;;;;13.50;94233.00;;;;7393482;19;20137;-77
2022/05/11 03:24:01;;;;;;;5.68;5.18;;;;;13.30;94240.00;;;;7393332;19;20141;-78
2022/05/11 03:26:29;;;;;;;7.38;4.90;;;;;13.40;94233.00;;;;7392862;19;20621;-78
2022/05/11 03:29:05;;;;;;;6.30;5.47;;;;;13.30;94231.00;;;;7393183;19;20136;-79
2022/05/11 03:31:38;;;;;;;6.55;5.57;;;;;13.30;94230.00;;;;7393868;19;20129;-78
2022/05/11 03:36:59;;;;;;;7.97;5.00;;;;;13.40;94234.00;;;;7393383;19;20254;-78
2022/05/11 03:39:34;;;;;;;7.13;5.65;;;;;13.40;94228.00;;;;7393272;19;20140;-79
2022/05/11 03:42:03;;;;;;;7.57;4.90;;;;;13.40;94224.00;;;;7392552;19;20132;-77
2022/05/11 03:44:30;;;;;;;5.65;5.15;;;;;13.30;94218.00;;;;7392913;19;20146;-79
2022/05/11 03:47:05;;;;;;;5.93;4.95;;;;;13.30;94222.00;;;;7392066;19;20159;-79
2022/05/11 03:49:33;;;;;;;7.35;5.50;;;;;13.30;94221.00;;;;7393017;19;20158;-78
2022/05/11 03:52:01;;;;;;;5.65;5.13;;;;;13.20;94228.00;;;;7392343;19;20137;-80
2022/05/11 03:54:38;;;;;;;6.53;5.30;;;;;13.20;94215.00;;;;7393110;19;20482;-78
2022/05/11 03:57:05;;;;;;;5.78;5.28;;;;;13.20;94214.00;;;;7393450;19;20129;-77
2022/05/11 03:59:33;;;;;;;8.48;5.00;;;;;13.10;94214.00;;;;7391216;19;20189;-78
2022/05/11 04:02:13;;;;;;;5.22;4.72;;;;;13.10;94219.00;;;;7391924;19;20144;-78
2022/05/11 04:04:41;;;;;;;5.90;5.30;;;;;13.00;94220.00;;;;7393450;19;20128;-78
2022/05/11 04:07:16;;;;;;;5.55;4.90;;;;;13.00;94217.00;;;;7391198;19;20136;-79
2022/05/11 04:09:44;;;;;;;7.15;5.70;;;;;13.10;94219.00;;;;7392920;19;20132;-78
2022/05/11 04:12:12;;;;;;;5.90;5.38;;;;;13.20;94221.00;;;;7392283;19;20141;-78
2022/05/11 04:14:46;;;;;;;7.78;6.13;;;;;13.30;94221.00;;;;7392286;19;20618;-79
2022/05/11 04:17:13;;;;;;;7.60;5.07;;;;;13.20;94216.00;;;;7392079;19;20153;-79
2022/05/11 04:19:41;;;;;;;6.32;5.72;;;;;13.20;94214.00;;;;7392270;19;20156;-78
2022/05/11 04:22:15;;;;;;;5.65;5.15;;;;;13.30;94218.00;;;;7391333;19;20621;-79
2022/05/11 04:24:43;;;;;;;5.75;5.25;;;;;13.30;94218.00;;;;7390121;19;20189;-79
2022/05/11 04:27:10;;;;;;;6.53;5.22;;;;;13.30;94219.00;;;;7392638;19;20584;-79
2022/05/11 04:29:44;;;;;;;6.47;5.00;;;;;13.30;94219.00;;;;7393100;19;20498;-79
2022/05/11 04:32:14;;;;;;;7.00;5.03;;;;;13.40;94218.00;;;;7391900;19;20132;-79
2022/05/11 04:34:42;;;;;;;5.65;5.15;;;;;13.40;94209.00;;;;7389879;19;20185;-78
2022/05/11 04:37:17;;;;;;;5.57;5.05;;;;;13.60;94209.00;;;;7391969;19;20612;-76
2022/05/11 04:39:45;;;;;;;7.65;5.10;;;;;13.70;94210.00;;;;7390145;19;20129;-76
2022/05/11 04:42:13;;;;;;;5.80;5.30;;;;;13.70;94222.00;;;;7387174;19;20140;-78
2022/05/11 04:44:47;;;;;;;5.10;4.60;;;;;13.80;94214.00;;;;7389595;19;20144;-77
2022/05/11 04:47:17;;;;;;;6.30;5.13;;;;;13.80;94220.00;;;;7389048;19;20140;-77
2022/05/11 04:49:45;;;;;;;5.60;5.00;;;;;13.80;94214.00;;;;7390941;19;20457;-78
2022/05/11 04:52:19;;;;;;;6.32;4.95;;;;;14.00;94203.00;;;;7392150;19;20140;-77
2022/05/11 04:54:49;;;;;;;7.57;4.68;;;;;14.40;94210.00;;;;7391468;19;20525;-77
2022/05/11 04:57:21;;;;;;;6.63;4.75;;;;;14.30;94214.00;;;;7391720;19;20625;-79
2022/05/11 05:00:12;;;;;;;4.57;4.18;;;;;14.70;94220.00;;;;7390927;19;20618;-80
2022/05/11 05:02:46;;;;;;;4.72;4.32;;;;;14.80;94215.00;;;;7392983;19;20469;-77
2022/05/11 05:05:21;;;;;;;5.32;4.82;;;;;15.00;94214.00;;;;7391433;19;20116;-76
2022/05/11 05:07:48;;;;;;;6.43;4.57;;;;;15.10;94212.00;;;;7391063;19;20137;-78
2022/05/11 05:10:16;;;;;;;5.60;4.68;;;;;15.30;94214.00;;;;7391295;19;20129;-77
2022/05/11 05:12:51;;;;;;;4.68;4.28;;;;;15.60;94209.00;;;;7391924;19;20132;-78
2022/05/11 05:15:19;;;;;;;4.50;4.10;;;;;16.00;94215.00;;;;7392303;19;20137;-79
2022/05/11 05:17:51;;;;;;;5.40;4.57;;;;;16.10;94214.00;;;;7393879;19;20144;-79
2022/05/11 05:20:25;;;;;;;4.78;4.10;;;;;16.40;94212.00;;;;7400214;19;20136;-79
2022/05/11 05:22:53;;;;;;;8.35;4.03;;;;;16.40;94215.00;;;;7399809;19;20136;-78
2022/05/11 05:25:21;;;;;;;5.18;3.92;;;;;16.60;94211.00;;;;7400151;19;20208;-79
2022/05/11 05:31:04;;;;;;;4.60;4.20;;;;;16.90;94214.00;;;;7398046;19;20136;-79
2022/05/11 05:33:39;;;;;;;4.43;3.97;;;;;17.20;94215.00;;;;7398102;19;20452;-78
2022/05/11 05:36:07;;;;;;;4.07;3.67;;;;;17.40;94216.00;;;;7398275;19;20133;-77
2022/05/11 05:38:38;;;;;;;7.93;4.05;;;;;17.70;94215.00;;;;7398311;19;20177;-77
2022/05/11 05:41:12;;;;;;;5.90;3.88;;;;;17.80;94221.00;;;;7398673;19;20591;-78
2022/05/11 05:43:40;;;;;;;5.85;3.70;;;;;17.90;94223.00;;;;7397745;19;20144;-77
2022/05/11 05:46:08;;;;;;;3.53;3.22;;;;;18.00;94216.00;;;;7397160;19;20150;-78
2022/05/11 05:48:42;;;;;;;6.28;3.80;;;;;18.20;94211.00;;;;7396758;19;20128;-77
2022/05/11 05:51:12;;;;;;;4.35;3.50;;;;;18.40;94222.00;;;;7397229;19;20137;-77
2022/05/11 05:53:40;;;;;;;4.10;3.60;;;;;18.60;94220.00;;;;7397686;19;20160;-77
2022/05/11 05:56:15;;;;;;;4.07;3.70;;;;;18.60;94218.00;;;;7399855;19;20124;-77
2022/05/11 05:58:47;;;;;;;3.88;3.28;;;;;18.80;94220.00;;;;7398549;19;20184;-77
2022/05/11 06:01:28;;;;;;;3.97;3.50;;;;;19.10;94217.00;;;;7394298;19;20168;-78
2022/05/11 06:03:56;;;;;;;5.50;3.30;;;;;19.40;94213.00;;;;7394186;19;20132;-79
2022/05/11 06:06:30;;;;;;;3.80;3.50;;;;;19.60;94212.00;;;;7395327;19;20603;-78
2022/05/11 06:08:58;;;;;;;4.18;3.45;;;;;20.00;94205.00;;;;7394605;19;20467;-78
2022/05/11 06:11:25;;;;;;;5.90;3.70;;;;;20.20;94211.00;;;;7395771;19;20141;-77
2022/05/11 06:14:00;;;;;;;4.10;3.22;;;;;20.00;94220.00;;;;7394907;19;20199;-78
2022/05/11 06:16:28;;;;;;;3.85;3.35;;;;;19.80;94212.00;;;;7394922;19;20177;-78
2022/05/11 06:18:55;;;;;;;4.32;3.17;;;;;19.80;94218.00;;;;7394029;19;20128;-78
2022/05/11 06:21:29;;;;;;;4.45;3.10;;;;;19.80;94219.00;;;;7396914;19;20475;-78
2022/05/11 06:23:57;;;;;;;5.00;3.10;;;;;19.80;94222.00;;;;7395417;19;20131;-75
2022/05/11 06:26:25;;;;;;;3.17;2.88;;;;;20.00;94214.00;;;;7395316;19;20141;-79
2022/05/11 06:29:19;;;;;;;4.60;3.35;;;;;20.10;94218.00;;;;7393072;19;20152;-79
2022/05/11 06:31:46;;;;;;;3.70;3.40;;;;;20.20;94221.00;;;;7395818;19;20162;-78
2022/05/11 06:34:20;;;;;;;3.53;3.22;;;;;20.40;94214.00;;;;7393938;19;20591;-80
2022/05/11 06:36:49;;;;;;;3.70;3.20;;;;;20.70;94220.00;;;;7396129;19;20121;-79
2022/05/11 06:39:16;;;;;;;4.40;3.28;;;;;20.90;94207.00;;;;7396714;19;20477;-77
2022/05/11 06:41:50;;;;;;;5.80;3.42;;;;;21.10;94205.00;;;;7395491;19;20141;-79
2022/05/11 06:44:18;;;;;;;5.22;3.45;;;;;21.20;94216.00;;;;7394657;19;20129;-79
2022/05/11 06:46:45;;;;;;;3.47;3.17;;;;;21.70;94209.00;;;;7394286;19;20469;-78
2022/05/11 06:49:19;;;;;;;4.97;3.30;;;;;21.60;94214.00;;;;7391851;19;20643;-80
2022/05/11 06:51:47;;;;;;;4.30;3.10;;;;;21.60;94211.00;;;;7394331;19;20148;-79
2022/05/11 07:00:06;;;;;;;5.57;2.90;;;;;22.40;94206.00;;;;7392705;19;20173;-79
2022/05/11 07:02:41;;;;;;;4.85;3.30;;;;;22.20;94202.00;;;;7393717;19;20145;-79
2022/05/11 07:05:09;;;;;;;7.13;3.67;;;;;22.90;94203.00;;;;7387809;19;20140;-79
2022/05/11 07:07:39;;;;;;;3.92;3.25;;;;;23.20;94208.00;;;;7388033;19;20141;-80
2022/05/11 07:10:13;;;;;;;4.72;3.40;;;;;23.30;94205.00;;;;7392993;19;20133;-79
2022/05/11 07:12:46;;;;;;;3.47;3.17;;;;;23.30;94200.00;;;;7393281;19;20125;-77
2022/05/11 07:15:22;;;;;;;5.40;3.17;;;;;23.90;94201.00;;;;7393407;19;20206;-77
2022/05/11 07:17:53;;;;;;;3.33;2.92;;;;;24.00;94199.00;;;;7388657;19;20160;-79
2022/05/11 07:20:33;;;;;;;3.83;3.20;;;;;23.60;94201.00;;;;7391344;19;20136;-79
2022/05/11 07:23:03;;;;;;;4.07;3.45;;;;;23.90;94206.00;;;;7393332;19;20215;-79
2022/05/11 07:25:37;;;;;;;3.97;3.10;;;;;23.60;94202.00;;;;7392449;19;20208;-81
2022/05/11 07:28:05;;;;;;;3.90;3.58;;;;;23.60;94198.00;;;;7391939;19;20148;-79
2022/05/11 07:30:37;;;;;;;3.58;3.28;;;;;23.90;94199.00;;;;7393246;19;20145;-79
2022/05/11 07:33:11;;;;;;;6.22;3.10;;;;;23.60;94197.00;;;;7392598;19;20176;-80
2022/05/11 07:35:39;;;;;;;7.28;3.50;;;;;23.60;94201.00;;;;7392624;19;20604;-79
2022/05/11 07:38:08;;;;;;;5.40;3.83;;;;;23.20;94212.00;;;;7392810;19;20200;-79
2022/05/11 07:40:43;;;;;;;3.72;3.42;;;;;23.30;94200.00;;;;7392091;19;20940;-79
2022/05/11 07:43:12;;;;;;;5.50;3.63;;;;;23.90;94207.00;;;;7392833;19;20144;-81
2022/05/11 07:45:41;;;;;;;4.60;3.40;;;;;23.90;94208.00;;;;7391935;19;20147;-81
2022/05/11 07:48:20;;;;;;;3.60;3.28;;;;;23.90;94210.00;;;;7391320;19;20152;-79
2022/05/11 07:50:48;;;;;;;3.95;3.55;;;;;23.80;94201.00;;;;7394192;19;20457;-81
2022/05/11 07:53:22;;;;;;;4.38;3.33;;;;;24.10;94198.00;;;;7393992;19;20136;-82
2022/05/11 07:59:52;;;;;;;4.38;3.50;;;;;24.10;94197.00;;;;7391890;19;20140;-81
2022/05/11 08:01:37;;;;;;;5.38;3.40;;;;;25.00;94193.00;;;;7388648;19;20627;-79
2022/05/11 08:04:11;;;;;;;4.07;3.67;;;;;24.30;94196.00;;;;7386523;19;20141;-79
2022/05/11 08:06:39;;;;;;;5.30;3.60;;;;;24.20;94204.00;;;;7387017;19;20244;-79
2022/05/11 08:09:07;;;;;;;4.13;3.75;;;;;24.30;94197.00;;;;7387170;19;20129;-80
2022/05/11 08:11:41;;;;;;;3.85;3.45;;;;;24.00;94195.00;;;;7385758;19;20169;-81
2022/05/11 08:14:09;;;;;;;3.83;3.42;;;;;24.30;94197.00;;;;7385975;19;20137;-81
2022/05/11 08:16:36;;;;;;;4.57;3.50;;;;;24.20;94194.00;;;;7386110;19;20137;-80
2022/05/11 08:19:12;;;;;;;5.00;3.42;;;;;24.20;94206.00;;;;7388362;19;20152;-81
2022/05/11 08:21:41;;;;;;;6.05;4.10;;;;;24.40;94195.00;;;;7387502;19;20459;-82
2022/05/11 08:24:10;;;;;;;4.53;3.90;;;;;25.50;94189.00;;;;7387367;19;20129;-84
2022/05/11 08:26:50;;;;;;;6.07;3.30;;;;;25.80;94186.00;;;;7386012;19;20140;-80
2022/05/11 08:34:59;;;;;;;7.80;3.08;;;;;27.80;94176.00;;;;7385662;19;20516;-81
2022/05/11 08:37:33;;;;;;;3.67;3.05;;;;;27.20;94160.00;;;;7386715;19;20583;-82
2022/05/11 08:40:02;;;;;;;5.10;3.08;;;;;26.20;94170.00;;;;7388310;19;20702;-76
2022/05/11 08:42:34;;;;;;;5.30;3.13;;;;;26.30;94160.00;;;;7391978;19;20577;-80
2022/05/11 08:45:09;;;;;;;3.70;3.40;;;;;26.30;94153.00;;;;7386061;19;20611;-79
2022/05/11 08:47:48;;;;;;;5.60;2.85;;;;;26.20;94160.00;;;;7389966;19;20121;-83
2022/05/11 08:50:27;;;;;;;6.00;3.38;;;;;26.30;94157.00;;;;7391160;19;20132;-84
2022/05/11 08:53:02;;;;;;;9.43;3.17;;;;;26.60;94162.00;;;;7394841;19;20141;-77
2022/05/11 08:55:55;;;;;;;4.95;3.20;;;;;26.80;94158.00;;;;7398179;19;20137;-83
2022/05/11 08:58:30;;;;;;;3.60;3.30;;;;;27.20;94151.00;;;;7395863;19;20132;-83
2022/05/11 09:01:13;;;;;;;3.88;3.13;;;;;26.80;94166.00;;;;7394917;19;20607;-80
2022/05/11 09:03:52;;;;;;;3.50;3.15;;;;;27.00;94157.00;;;;7398635;19;20132;-79
2022/05/11 09:06:30;;;;;;;4.78;3.00;;;;;27.00;94156.00;;;;7398231;19;20504;-82
2022/05/11 09:09:00;;;;;;;8.80;3.25;;;;;27.50;94153.00;;;;7397912;19;20144;-80
2022/05/11 09:11:48;;;;;;;3.88;2.90;;;;;28.00;94151.00;;;;7398658;19;20148;-78
2022/05/11 09:14:22;;;;;;;6.05;3.17;;;;;28.20;94151.00;;;;7397381;19;20164;-78
2022/05/11 09:16:56;;;;;;;6.15;3.30;;;;;28.50;94148.00;;;;7399253;19;20132;-81
2022/05/11 09:19:29;;;;;;;4.03;3.05;;;;;28.40;94159.00;;;;7397853;19;20124;-76
2022/05/11 09:22:09;;;;;;;5.18;3.13;;;;;26.80;94165.00;;;;7397940;19;20136;-82
2022/05/11 09:24:49;;;;;;;5.60;3.00;;;;;26.10;94153.00;;;;7397047;19;20121;-81
2022/05/11 09:27:27;;;;;;;3.78;2.97;;;;;26.80;94158.00;;;;7397319;19;20216;-80
2022/05/11 09:29:57;;;;;;;3.17;2.88;;;;;27.10;94154.00;;;;7394251;19;20500;-79
2022/05/11 09:32:44;;;;;;;5.60;3.05;;;;;27.00;94146.00;;;;7397420;19;20151;-79
2022/05/11 09:35:26;;;;;;;3.67;3.00;;;;;27.50;94153.00;;;;7395574;19;20216;-80
2022/05/11 09:38:31;;;;;;;4.82;3.17;;;;;26.10;94172.00;;;;7397682;19;20204;-78
2022/05/11 09:41:06;;;;;;;3.25;2.90;;;;;25.60;94153.00;;;;7396742;19;20204;-76
2022/05/11 09:43:46;;;;;;;7.63;2.95;;;;;25.60;94147.00;;;;7397024;19;20614;-78
2022/05/11 09:46:28;;;;;;;4.20;3.10;;;;;26.30;94156.00;;;;7396618;19;20164;-76
2022/05/11 09:49:05;;;;;;;3.60;3.30;;;;;27.50;94142.00;;;;7394581;19;20603;-77
2022/05/11 09:51:46;;;;;;;5.70;3.22;;;;;27.40;94146.00;;;;7395846;19;20603;-80
2022/05/11 09:54:29;;;;;;;4.95;3.15;;;;;26.90;94145.00;;;;7396335;19;20132;-79
2022/05/11 09:57:27;;;;;;;4.30;3.17;;;;;26.90;94140.00;;;;7397838;19;20603;-78
2022/05/11 10:00:29;;;;;;;4.65;3.22;;;;;27.20;94153.00;;;;7395425;19;20188;-81
2022/05/11 10:03:08;;;;;;;5.07;3.00;;;;;26.40;94147.00;;;;7396442;19;20129;-77
2022/05/11 10:05:48;;;;;;;3.05;2.75;;;;;26.80;94156.00;;;;7397937;19;20188;-75
2022/05/11 10:08:32;;;;;;;3.67;2.75;;;;;26.50;94130.00;;;;7395571;19;20133;-76
2022/05/11 10:11:23;;;;;;;3.72;3.00;;;;;26.10;94162.00;;;;7395633;19;20144;-81
2022/05/11 10:21:50;;;;;;;4.00;2.75;;;;;25.60;94140.00;;;;7395281;19;20146;-75
2022/05/11 10:23:17;;;;;;;4.97;3.22;;;;;25.40;94118.00;;;;7397563;19;20644;-77
2022/05/11 10:26:00;;;;;;;3.50;2.70;;;;;25.20;94147.00;;;;7396575;19;20603;-79
2022/05/11 10:29:17;;;;;;;5.45;2.50;;;;;25.40;94116.00;;;;7394937;19;20144;-79
2022/05/11 10:31:57;;;;;;;4.25;2.58;;;;;26.80;94116.00;;;;7391300;19;20137;-76
2022/05/11 10:34:39;;;;;;;5.32;2.80;;;;;27.70;94134.00;;;;7393343;19;20572;-81
2022/05/11 10:37:21;;;;;;;5.88;2.70;;;;;27.30;94124.00;;;;7390455;19;20638;-81
2022/05/11 10:40:15;;;;;;;3.47;2.90;;;;;27.10;94117.00;;;;7390068;19;20148;-82
2022/05/11 10:42:50;;;;;;;3.88;2.90;;;;;27.30;94117.00;;;;7389792;19;20136;-76
2022/05/11 10:45:33;;;;;;;3.83;3.20;;;;;27.30;94113.00;;;;7390025;19;20155;-84
2022/05/11 10:48:26;;;;;;;3.75;3.13;;;;;27.70;94103.00;;;;7386522;19;20131;-80
2022/05/11 10:51:16;;;;;;;5.18;3.00;;;;;28.40;94095.00;;;;7390845;19;20125;-80
2022/05/11 10:54:09;;;;;;;3.88;3.00;;;;;28.90;94089.00;;;;7390012;19;20137;-79
2022/05/11 10:56:52;;;;;;;3.45;3.15;;;;;29.20;94095.00;;;;7389464;19;20619;-78
2022/05/11 10:59:39;;;;;;;4.32;3.00;;;;;29.00;94075.00;;;;7389755;19;20121;-78
2022/05/11 11:02:35;;;;;;;6.15;2.72;;;;;28.90;94082.00;;;;7388925;19;20148;-75
2022/05/11 11:05:09;;;;;;;3.25;2.50;;;;;29.00;94088.00;;;;7388513;19;20160;-83
2022/05/11 11:08:02;;;;;;;3.50;2.40;;;;;29.60;94082.00;;;;7389056;19;20211;-80
2022/05/11 11:10:51;;;;;;;5.57;3.10;;;;;28.80;94094.00;;;;7386029;19;20129;-81
2022/05/11 11:13:44;;;;;;;3.40;2.63;;;;;28.40;94087.00;;;;7387757;19;20148;-79
2022/05/11 11:16:13;;;;;;;5.10;2.50;;;;;28.50;94071.00;;;;7386266;19;20532;-81
2022/05/11 11:18:49;;;;;;;3.92;2.80;;;;;28.30;94071.00;;;;7387974;19;20163;-78
2022/05/11 11:21:20;;;;;;;5.53;3.05;;;;;28.60;94066.00;;;;7387276;19;20216;-76
2022/05/11 11:24:24;;;;;;;2.83;2.53;;;;;28.90;94063.00;;;;7388574;19;20141;-80
2022/05/11 11:26:56;;;;;;;6.03;2.55;;;;;28.70;94079.00;;;;7388267;19;20140;-81
2022/05/11 11:29:36;;;;;;;5.10;2.72;;;;;28.60;94061.00;;;;7387791;19;20608;-82
2022/05/11 11:32:14;;;;;;;3.45;2.83;;;;;28.70;94069.00;;;;7386988;19;20145;-84
2022/05/11 11:34:51;;;;;;;2.65;2.45;;;;;28.40;94073.00;;;;7385947;19;20172;-82
2022/05/11 11:37:25;;;;;;;3.17;2.88;;;;;28.40;94065.00;;;;7387277;19;20660;-78
2022/05/11 11:40:12;;;;;;;4.18;2.78;;;;;28.00;94055.00;;;;7386780;19;20165;-78
2022/05/11 11:42:45;;;;;;;5.35;2.63;;;;;28.40;94070.00;;;;7387138;19;20136;-81
2022/05/11 11:45:29;;;;;;;3.30;3.00;;;;;28.40;94055.00;;;;7387112;19;20137;-76
2022/05/11 11:48:15;;;;;;;5.13;3.10;;;;;29.10;94051.00;;;;7386626;19;20140;-78
2022/05/11 11:50:59;;;;;;;3.17;2.72;;;;;28.60;94047.00;;;;7385704;19;20152;-78
2022/05/11 11:53:41;;;;;;;4.22;2.58;;;;;28.90;94059.00;;;;7389023;19;20131;-79
2022/05/11 11:56:25;;;;;;;8.57;2.60;;;;;28.70;94055.00;;;;7388573;19;20140;-83
2022/05/11 11:59:11;;;;;;;4.95;2.65;;;;;28.50;94052.00;;;;7387181;19;20156;-78
2022/05/11 12:01:55;;;;;;;8.57;2.63;;;;;28.90;94045.00;;;;7381740;19;20168;-82
2022/05/11 12:04:34;;;;;;;4.60;2.70;;;;;29.20;94035.00;;;;7386990;19;20136;-81
2022/05/11 12:16:05;;;;;;;2.60;2.40;;;;;28.90;94044.00;;;;7387318;19;20554;-79
2022/05/11 12:18:41;;;;;;;2.65;2.45;;;;;29.20;94036.00;;;;7386789;19;20141;-81
2022/05/11 12:21:24;;;;;;;4.88;2.70;;;;;29.30;94039.00;;;;7385995;19;20141;-82
2022/05/11 12:24:02;;;;;;;4.05;2.63;;;;;30.10;94022.00;;;;7388562;19;20137;-80
2022/05/11 12:26:37;;;;;;;2.90;2.50;;;;;30.50;94031.00;;;;7384310;19;20148;-78
2022/05/11 12:32:07;;;;;;;5.68;2.55;;;;;29.60;94020.00;;;;7385507;19;20141;-80
2022/05/11 12:34:46;;;;;;;6.35;2.63;;;;;29.90;94014.00;;;;7384566;19;20223;-79
2022/05/11 12:37:32;;;;;;;2.97;2.60;;;;;29.30;94020.00;;;;7386101;19;20149;-78
2022/05/11 12:40:07;;;;;;;4.28;2.65;;;;;29.20;94009.00;;;;7385636;19;20144;-76
2022/05/11 12:42:48;;;;;;;3.83;2.53;;;;;29.60;94029.00;;;;7385134;19;20147;-79
2022/05/11 12:45:31;;;;;;;3.22;2.92;;;;;29.30;94017.00;;;;7385490;19;20143;-77
2022/05/11 12:47:59;;;;;;;3.25;2.50;;;;;28.80;94013.00;;;;7384336;19;20133;-75
2022/05/11 12:50:37;;;;;;;4.75;2.75;;;;;29.10;94022.00;;;;7384244;19;20728;-78
2022/05/11 12:53:18;;;;;;;4.38;3.10;;;;;29.60;94014.00;;;;7385202;19;20157;-81
2022/05/11 12:56:05;;;;;;;3.80;2.78;;;;;29.30;94010.00;;;;7384773;19;20145;-80
2022/05/11 12:58:35;;;;;;;2.90;2.60;;;;;29.10;94028.00;;;;7386834;19;20121;-78
2022/05/11 13:01:21;;;;;;;3.72;2.50;;;;;28.80;94009.00;;;;7383710;19;20524;-80
2022/05/11 13:04:14;;;;;;;3.10;2.80;;;;;28.60;94016.00;;;;7385805;19;20129;-82
2022/05/11 13:06:55;;;;;;;5.80;3.17;;;;;29.10;94000.00;;;;7385067;19;20125;-81
2022/05/11 13:09:39;;;;;;;3.25;2.63;;;;;29.20;94007.00;;;;7384308;19;20587;-82
2022/05/11 13:12:15;;;;;;;3.30;3.00;;;;;29.40;93995.00;;;;7384401;19;20579;-82
2022/05/11 13:14:48;;;;;;;2.92;2.72;;;;;30.10;93994.00;;;;7386836;19;20200;-80
2022/05/11 13:17:25;;;;;;;3.42;2.75;;;;;30.10;93982.00;;;;7383319;19;20595;-80
2022/05/11 13:19:57;;;;;;;3.90;2.60;;;;;28.50;94002.00;;;;7386002;19;20892;-78
2022/05/11 13:22:35;;;;;;;3.33;2.88;;;;;28.20;94001.00;;;;7384925;19;20137;-78
2022/05/11 13:25:07;;;;;;;5.82;2.80;;;;;27.70;94022.00;;;;7385237;19;20176;-78
2022/05/11 13:27:48;;;;;;;5.85;2.70;;;;;27.40;93982.00;;;;7384284;19;20480;-76
2022/05/11 13:30:45;;;;;;;4.07;3.28;;;;;28.40;94024.00;;;;7383387;19;20634;-84
2022/05/11 13:33:29;;;;;;;7.70;2.70;;;;;27.60;94017.00;;;;7383441;19;20165;-80
2022/05/11 13:36:12;;;;;;;5.75;3.03;;;;;28.10;93987.00;;;;7384041;19;20143;-83
2022/05/11 13:39:03;;;;;;;3.03;2.72;;;;;28.40;93988.00;;;;7388448;19;20133;-83
2022/05/11 13:41:37;;;;;;;5.07;3.00;;;;;28.30;93995.00;;;;7390794;19;20918;-78